首页
METAR-TAF:

METAR-TAF

机场 :

University of Oklahoma Westheimer Airport

諾曼, 奧克拉荷馬州, 美国

纬度: 35-13N, 经度: 097-27W, 海拔: 357米

当前天气观测

该预报发布于51分钟前的16:45 UTC
风速5节,风向
温度 27°C
湿度 74%
气压 1024 hPa
能見度: 16.1公里
多云层高于1900英尺
多云层高于2700英尺

METAR: KOUN 201645Z 10005KT 10SM BKN019 BKN027 27/22 A3024

时间: 12:36 (17:36 UTC)

预报

该预报发布于2小时和12分钟前的15:24 UTC
预报有效从20日的 15点(UTC)到 21日的 12点(UTC)
风速9节,风向东转东南
能見度: 10公里
多云层高于2000英尺
多云层高于12000英尺
从 21日的 0100点(UTC)
风速6节,风向东南
能見度: 10公里
散云层高于5000英尺
多云层高于12000英尺

TAF: KOUN 201524Z 2015/2112 12009KT P6SM BKN020 BKN120 FM210100 14006KT P6SM SCT050 BKN120

超过4000个机场的气象观测和天气预报(METAR&TAF报告)。

可查询的气象台以黄色和红色小点在地图上表示。

将鼠标移到小点上方,可查看气象台名称。

然后点击查看天气观测和预报。

如需切换地图:点击带黑十字的绿色按钮放大地图;点击带横线的绿色按钮缩小地图;或者点击绿色箭头查看邻近地区的地图。


METAR-TAF: